createdAt,value
2022-08-30T00:02:22.232Z,68.26
2022-08-30T00:04:51.980Z,68.74
2022-08-30T00:07:18.762Z,69.02
2022-08-30T00:09:45.483Z,69.12
2022-08-30T00:12:12.345Z,69.46
2022-08-30T00:14:39.408Z,69.40
2022-08-30T00:17:06.126Z,69.60
2022-08-30T00:19:33.048Z,69.84
2022-08-30T00:22:00.162Z,69.86
2022-08-30T00:24:27.007Z,70.03
2022-08-30T00:26:53.748Z,70.15
2022-08-30T00:29:20.899Z,70.31
2022-08-30T00:31:47.626Z,69.94
2022-08-30T00:34:16.656Z,70.42
2022-08-30T00:36:45.035Z,70.17
2022-08-30T00:39:11.743Z,70.51
2022-08-30T00:41:39.383Z,70.32
2022-08-30T00:44:06.344Z,70.45
2022-08-30T00:46:33.217Z,70.90
2022-08-30T00:49:04.817Z,70.85
2022-08-30T00:51:33.717Z,70.97
2022-08-30T00:54:02.094Z,70.72
2022-08-30T00:56:29.902Z,71.06
2022-08-30T00:58:59.484Z,70.91
2022-08-30T01:01:28.520Z,71.01
2022-08-30T01:03:59.444Z,71.35
2022-08-30T01:06:26.339Z,71.76
2022-08-30T01:09:01.037Z,71.50
2022-08-30T01:11:28.293Z,71.77
2022-08-30T01:13:56.311Z,72.17
2022-08-30T01:16:25.861Z,72.28
2022-08-30T01:18:57.594Z,72.17
2022-08-30T01:21:46.736Z,72.47
2022-08-30T01:24:14.245Z,72.50
2022-08-30T01:26:41.200Z,73.00
2022-08-30T01:29:13.060Z,73.17
2022-08-30T01:31:39.776Z,73.31
2022-08-30T01:34:07.824Z,73.49
2022-08-30T01:36:37.931Z,73.58
2022-08-30T01:39:13.727Z,73.70
2022-08-30T01:41:40.707Z,73.59
2022-08-30T01:44:10.463Z,73.66
2022-08-30T01:46:46.801Z,73.80
2022-08-30T01:49:17.163Z,74.06
2022-08-30T01:51:45.720Z,74.05
2022-08-30T01:54:12.603Z,74.40
2022-08-30T01:56:39.889Z,74.26
2022-08-30T01:59:06.872Z,74.51
2022-08-30T02:01:37.339Z,74.33
2022-08-30T02:04:04.699Z,74.71
2022-08-30T02:06:31.748Z,74.71
2022-08-30T02:08:59.189Z,74.70
2022-08-30T02:11:26.051Z,74.44
2022-08-30T02:13:52.927Z,74.82
2022-08-30T02:16:23.161Z,74.93
2022-08-30T02:18:52.224Z,74.84
2022-08-30T02:21:19.576Z,74.95
2022-08-30T02:23:46.345Z,74.96
2022-08-30T02:26:14.895Z,74.85
2022-08-30T02:28:42.724Z,75.13
2022-08-30T02:31:17.268Z,74.97
2022-08-30T02:33:46.426Z,74.94
2022-08-30T02:36:13.727Z,75.39
2022-08-30T02:38:40.575Z,75.05
2022-08-30T02:41:09.575Z,75.14
2022-08-30T02:43:36.292Z,75.51
2022-08-30T02:46:03.332Z,75.40
2022-08-30T02:48:30.217Z,75.27
2022-08-30T02:50:57.314Z,75.37
2022-08-30T02:53:24.342Z,75.30
2022-08-30T02:55:53.782Z,75.61
2022-08-30T02:58:20.486Z,75.43
2022-08-30T03:00:47.480Z,75.54
2022-08-30T03:03:14.323Z,75.38
2022-08-30T03:05:41.136Z,75.41
2022-08-30T03:08:11.594Z,75.56
2022-08-30T03:10:39.502Z,75.67
2022-08-30T03:13:07.710Z,75.83
2022-08-30T03:15:36.386Z,75.37
2022-08-30T03:18:03.648Z,75.76
2022-08-30T03:20:30.592Z,75.46
2022-08-30T03:22:58.160Z,75.37
2022-08-30T03:25:24.911Z,75.36
2022-08-30T03:27:51.617Z,75.53
2022-08-30T03:30:22.937Z,75.40
2022-08-30T03:32:49.733Z,75.31
2022-08-30T03:35:19.300Z,75.42
2022-08-30T03:37:47.020Z,75.27
2022-08-30T03:40:17.294Z,75.42
2022-08-30T03:42:46.000Z,75.60
2022-08-30T03:45:14.411Z,75.40
2022-08-30T03:47:41.912Z,75.05
2022-08-30T03:50:10.215Z,75.16
2022-08-30T03:52:37.307Z,74.89
2022-08-30T03:55:05.171Z,74.98
2022-08-30T03:58:31.912Z,75.18
2022-08-30T04:01:58.403Z,74.64
2022-08-30T04:09:17.400Z,74.83
2022-08-30T04:12:48.900Z,74.73
2022-08-30T04:15:18.292Z,74.62
2022-08-30T04:22:26.638Z,74.54
2022-08-30T04:25:53.097Z,74.34
2022-08-30T04:29:19.677Z,74.14
2022-08-30T04:32:46.196Z,74.46
2022-08-30T04:40:05.339Z,73.99
2022-08-30T04:43:31.817Z,74.32
2022-08-30T04:50:20.880Z,74.20
2022-08-30T04:53:47.382Z,74.31
2022-08-30T05:01:06.635Z,74.79
2022-08-30T05:04:36.540Z,74.79
2022-08-30T05:11:54.513Z,74.55
2022-08-30T09:23:51.157Z,54.40
2022-08-30T09:26:29.952Z,53.91
2022-08-30T09:28:57.323Z,53.62
2022-08-30T09:31:28.032Z,53.38
2022-08-30T09:34:03.854Z,53.24
2022-08-30T09:36:44.089Z,53.39
2022-08-30T09:39:27.597Z,53.16
2022-08-30T09:41:55.297Z,52.99
2022-08-30T09:44:28.385Z,52.92
2022-08-30T09:47:00.053Z,52.86
2022-08-30T09:49:44.726Z,52.79
2022-08-30T09:52:17.527Z,52.53
2022-08-30T09:54:59.892Z,52.54
2022-08-30T09:57:40.843Z,52.28
2022-08-30T10:00:13.524Z,52.12
2022-08-30T10:02:47.994Z,52.22
2022-08-30T10:05:23.991Z,51.75
2022-08-30T10:08:08.948Z,51.84
2022-08-30T10:10:46.946Z,51.56
2022-08-30T10:13:36.511Z,51.52
2022-08-30T10:16:09.653Z,51.16
2022-08-30T10:19:06.496Z,50.83
2022-08-30T10:21:49.421Z,50.79
2022-08-30T10:24:23.561Z,50.85
2022-08-30T10:26:57.844Z,50.79
2022-08-30T10:29:31.852Z,50.46
2022-08-30T10:32:05.795Z,50.35
2022-08-30T10:34:44.203Z,50.16
2022-08-30T10:37:16.955Z,49.93
2022-08-30T10:39:48.617Z,49.79
2022-08-30T10:42:33.821Z,49.86
2022-08-30T10:45:05.396Z,49.72
2022-08-30T10:47:47.165Z,50.03
2022-08-30T10:50:20.328Z,49.82
2022-08-30T10:53:03.650Z,50.09
2022-08-30T10:55:35.696Z,49.99
2022-08-30T10:58:05.765Z,49.86
2022-08-30T11:00:41.524Z,49.74
2022-08-30T11:03:40.417Z,49.70
2022-08-30T11:06:19.944Z,49.66
2022-08-30T11:09:05.101Z,49.46
2022-08-30T11:11:40.943Z,48.99
2022-08-30T11:14:11.920Z,48.60
2022-08-30T11:16:50.725Z,48.12
2022-08-30T11:19:26.411Z,47.52
2022-08-30T11:22:13.212Z,47.24
2022-08-30T11:24:57.927Z,46.78
2022-08-30T11:27:47.059Z,46.26
2022-08-30T11:30:24.488Z,45.77
2022-08-30T11:32:59.642Z,45.17
2022-08-30T11:35:55.659Z,44.75
2022-08-30T11:38:26.992Z,44.28
2022-08-30T11:40:57.039Z,43.77
2022-08-30T11:43:36.875Z,43.19
2022-08-30T11:46:25.937Z,42.73
2022-08-30T11:49:13.221Z,42.42
2022-08-30T11:52:23.780Z,41.95
2022-08-30T11:55:08.304Z,40.89
2022-08-30T11:57:53.863Z,40.30
2022-08-30T12:00:41.880Z,39.86
2022-08-30T12:03:14.803Z,39.20
2022-08-30T12:05:45.790Z,38.96
2022-08-30T12:08:21.346Z,38.48
2022-08-30T12:11:03.466Z,38.24
2022-08-30T12:13:39.144Z,38.30
2022-08-30T12:16:35.238Z,38.53
2022-08-30T12:19:19.984Z,38.70
2022-08-30T12:22:04.410Z,38.55
2022-08-30T12:24:40.398Z,37.94
2022-08-30T12:27:27.725Z,37.30
2022-08-30T12:30:01.563Z,36.78
2022-08-30T12:32:30.135Z,36.43
2022-08-30T12:35:05.870Z,35.73
2022-08-30T12:37:38.396Z,34.60
2022-08-30T12:40:16.472Z,33.60
2022-08-30T12:42:56.036Z,32.97
2022-08-30T12:45:26.924Z,32.08
2022-08-30T12:48:09.211Z,31.56
2022-08-30T12:50:52.058Z,31.51
2022-08-30T12:53:24.635Z,30.92
2022-08-30T12:56:08.419Z,31.04
2022-08-30T12:58:41.686Z,30.93
2022-08-30T13:01:31.231Z,31.00
2022-08-30T13:04:18.371Z,30.61
2022-08-30T13:06:54.114Z,30.30
2022-08-30T13:09:44.143Z,29.75
2022-08-30T13:12:22.403Z,29.20
2022-08-30T13:14:50.047Z,28.41
2022-08-30T13:17:19.192Z,27.86
2022-08-30T13:19:59.511Z,27.46
2022-08-30T13:22:30.662Z,27.58
2022-08-30T13:24:57.755Z,26.97
2022-08-30T13:27:26.018Z,27.00
2022-08-30T13:29:53.002Z,26.85
2022-08-30T13:32:19.923Z,26.73
2022-08-30T13:34:46.960Z,26.76
2022-08-30T13:40:11.486Z,26.49
2022-08-30T13:42:40.569Z,26.52
2022-08-30T13:45:40.866Z,26.47
2022-08-30T13:47:55.805Z,26.67
2022-08-30T13:50:22.517Z,27.23
2022-08-30T13:52:49.286Z,27.58
2022-08-30T13:55:16.235Z,27.61
2022-08-30T13:57:58.380Z,27.31
2022-08-30T14:00:26.797Z,27.02
2022-08-30T14:02:59.861Z,26.03
2022-08-30T14:05:49.519Z,25.40
2022-08-30T14:11:12.984Z,24.13
2022-08-30T14:16:31.750Z,22.88
2022-08-30T14:19:00.307Z,22.90
2022-08-30T14:21:28.266Z,23.32
2022-08-30T14:23:57.625Z,23.83
2022-08-30T14:27:24.328Z,24.64
2022-08-30T14:34:44.819Z,26.08
2022-08-30T14:38:12.291Z,26.30
2022-08-30T14:41:42.692Z,26.56
2022-08-30T14:45:10.064Z,27.34
2022-08-30T14:52:20.756Z,27.51
2022-08-30T14:55:47.284Z,26.41
2022-08-30T15:03:05.424Z,28.20
2022-08-30T15:06:31.893Z,29.74
2022-08-30T15:09:58.698Z,31.14
2022-08-30T15:13:25.167Z,32.30
2022-08-30T15:20:57.627Z,31.78
2022-08-30T15:24:29.291Z,32.04
2022-08-30T15:27:56.650Z,30.84
2022-08-30T15:31:23.274Z,30.68
2022-08-30T15:38:42.419Z,32.12
2022-08-30T15:42:09.082Z,31.59
2022-08-30T15:45:35.681Z,30.39
2022-08-30T15:49:02.160Z,28.73
2022-08-30T15:56:21.042Z,24.52
2022-08-30T15:58:48.401Z,23.45
2022-08-30T16:01:16.117Z,22.83
2022-08-30T16:03:46.979Z,22.40
2022-08-30T16:06:18.816Z,22.47
2022-08-30T16:08:46.414Z,21.75
2022-08-30T16:11:16.227Z,21.30
2022-08-30T16:13:45.110Z,20.42
2022-08-30T16:16:14.808Z,21.03
2022-08-30T16:18:41.908Z,21.60
2022-08-30T16:21:10.387Z,22.08
2022-08-30T16:23:38.235Z,21.88
2022-08-30T16:26:05.984Z,21.63
2022-08-30T16:28:35.296Z,22.04
2022-08-30T16:31:03.608Z,22.42
2022-08-30T16:33:34.321Z,23.03
2022-08-30T16:36:01.381Z,23.89
2022-08-30T16:38:28.426Z,23.23
2022-08-30T16:40:56.521Z,23.53
2022-08-30T16:43:23.916Z,22.83
2022-08-30T16:45:50.739Z,22.66
2022-08-30T16:48:17.748Z,23.08
2022-08-30T16:50:46.133Z,23.93
2022-08-30T16:53:13.739Z,24.25
2022-08-30T16:55:41.520Z,24.47
2022-08-30T16:58:10.950Z,24.35
2022-08-30T17:00:39.136Z,24.54
2022-08-30T17:03:07.267Z,24.72
2022-08-30T17:05:37.387Z,25.13
2022-08-30T17:08:05.019Z,24.76
2022-08-30T17:10:33.363Z,24.74
2022-08-30T17:13:00.446Z,24.22
2022-08-30T17:15:27.416Z,24.20
2022-08-30T17:17:56.089Z,24.35
2022-08-30T17:20:23.175Z,23.83
2022-08-30T17:22:50.044Z,23.44
2022-08-30T17:25:17.658Z,23.86
2022-08-30T17:27:44.704Z,24.64
2022-08-30T17:30:11.930Z,25.76
2022-08-30T17:32:38.961Z,27.09
2022-08-30T17:35:07.451Z,28.22
2022-08-30T17:37:34.620Z,29.46
2022-08-30T17:40:04.413Z,29.85
2022-08-30T17:42:31.467Z,30.95
2022-08-30T17:45:01.308Z,31.81
2022-08-30T17:47:36.440Z,32.79
2022-08-30T17:50:05.177Z,33.55
2022-08-30T17:52:32.773Z,34.36
2022-08-30T17:55:00.416Z,35.05
2022-08-30T17:57:27.192Z,35.22
2022-08-30T17:59:57.435Z,35.78
2022-08-30T18:02:30.054Z,36.16
2022-08-30T18:04:59.212Z,36.87
2022-08-30T18:07:26.885Z,37.07
2022-08-30T18:09:53.894Z,37.58
2022-08-30T18:12:24.656Z,38.13
2022-08-30T18:14:54.097Z,38.68
2022-08-30T18:17:21.364Z,39.21
2022-08-30T18:19:48.874Z,39.56
2022-08-30T18:22:16.668Z,40.02
2022-08-30T18:24:44.654Z,40.30
2022-08-30T18:27:11.891Z,41.04
2022-08-30T18:29:40.714Z,41.39
2022-08-30T18:32:09.150Z,42.06
2022-08-30T18:34:36.222Z,42.83
2022-08-30T18:37:03.180Z,43.64
2022-08-30T18:39:34.586Z,44.10
2022-08-30T18:42:02.710Z,44.50
2022-08-30T18:44:33.216Z,44.82
2022-08-30T18:47:01.832Z,45.54
2022-08-30T18:49:32.453Z,45.66
2022-08-30T18:52:00.481Z,46.44
2022-08-30T18:54:27.821Z,46.67
2022-08-30T18:56:54.834Z,47.02
2022-08-30T18:59:21.645Z,47.21
2022-08-30T19:01:49.678Z,47.70
2022-08-30T19:04:22.250Z,47.76
2022-08-30T19:06:57.250Z,48.18
2022-08-30T19:09:24.428Z,48.65
2022-08-30T19:11:54.029Z,48.68
2022-08-30T19:14:22.281Z,49.04
2022-08-30T19:16:49.027Z,49.19
2022-08-30T19:19:16.178Z,49.62
2022-08-30T19:21:43.122Z,49.86
2022-08-30T19:24:11.772Z,49.64
2022-08-30T19:26:38.650Z,50.14
2022-08-30T19:29:06.220Z,50.47
2022-08-30T19:31:33.729Z,50.37
2022-08-30T19:34:00.470Z,50.65
2022-08-30T19:36:29.116Z,50.82
2022-08-30T19:38:56.245Z,51.36
2022-08-30T19:41:23.728Z,51.50
2022-08-30T19:43:51.424Z,51.63
2022-08-30T19:46:18.443Z,52.21
2022-08-30T19:48:45.270Z,52.18
2022-08-30T19:51:13.945Z,52.62
2022-08-30T19:53:41.547Z,53.03
2022-08-30T19:56:08.450Z,53.17
2022-08-30T19:58:35.363Z,53.38
2022-08-30T20:01:12.333Z,53.59
2022-08-30T20:03:51.938Z,54.01
2022-08-30T20:06:19.724Z,54.31
2022-08-30T20:08:47.583Z,54.38
2022-08-30T20:11:17.317Z,54.71
2022-08-30T20:13:45.118Z,54.87
2022-08-30T20:16:13.537Z,54.96
2022-08-30T20:18:42.753Z,55.41
2022-08-30T20:21:13.545Z,55.30
2022-08-30T20:23:42.145Z,55.64
2022-08-30T20:26:13.064Z,55.69
2022-08-30T20:28:40.344Z,56.22
2022-08-30T20:31:08.733Z,56.37
2022-08-30T20:33:38.712Z,56.32
2022-08-30T20:36:08.004Z,56.53
2022-08-30T20:38:34.819Z,57.05
2022-08-30T20:41:02.909Z,57.13
2022-08-30T20:43:31.542Z,57.47
2022-08-30T20:45:58.358Z,58.09
2022-08-30T20:48:27.385Z,58.10
2022-08-30T20:50:54.240Z,58.85
2022-08-30T20:53:21.124Z,59.06
2022-08-30T20:55:48.128Z,59.30
2022-08-30T20:58:15.380Z,59.49
2022-08-30T21:00:46.042Z,59.73
2022-08-30T21:03:27.728Z,59.81
2022-08-30T21:05:55.630Z,59.76
2022-08-30T21:08:22.578Z,60.16
2022-08-30T21:10:49.824Z,60.21
2022-08-30T21:13:17.345Z,60.24
2022-08-30T21:15:46.410Z,60.20
2022-08-30T21:18:14.503Z,60.36
2022-08-30T21:20:41.736Z,60.56
2022-08-30T21:23:09.018Z,60.61
2022-08-30T21:25:39.123Z,60.78
2022-08-30T21:28:06.662Z,60.62
2022-08-30T21:30:35.440Z,60.79
2022-08-30T21:33:07.005Z,61.27
2022-08-30T21:35:53.243Z,61.55
2022-08-30T21:38:20.252Z,61.50
2022-08-30T21:40:48.604Z,61.45
2022-08-30T21:43:16.191Z,61.95
2022-08-30T21:45:44.687Z,62.12
2022-08-30T21:48:13.074Z,61.80
2022-08-30T21:50:42.358Z,61.88
2022-08-30T21:53:09.882Z,62.34
2022-08-30T21:55:38.901Z,61.96
2022-08-30T21:58:06.379Z,62.49
2022-08-30T22:00:33.738Z,62.24
2022-08-30T22:03:00.689Z,62.61
2022-08-30T22:05:27.980Z,62.59
2022-08-30T22:07:54.822Z,62.72
2022-08-30T22:10:23.873Z,62.50
2022-08-30T22:12:50.880Z,62.92
2022-08-30T22:15:17.792Z,63.07
2022-08-30T22:17:44.537Z,63.04
2022-08-30T22:20:16.179Z,63.04
2022-08-30T22:22:45.551Z,63.04
2022-08-30T22:25:12.461Z,63.03
2022-08-30T22:27:39.379Z,63.22
2022-08-30T22:30:06.764Z,63.24
2022-08-30T22:32:33.563Z,63.57
2022-08-30T22:35:00.386Z,63.61
2022-08-30T22:37:27.132Z,63.69
2022-08-30T22:39:53.976Z,63.67
2022-08-30T22:42:20.763Z,63.91
2022-08-30T22:44:48.489Z,64.23
2022-08-30T22:47:15.221Z,64.19
2022-08-30T22:49:41.958Z,64.23
2022-08-30T22:52:09.134Z,64.72
2022-08-30T22:54:37.327Z,64.83
2022-08-30T22:57:04.549Z,64.72
2022-08-30T22:59:34.154Z,65.11
2022-08-30T23:02:01.029Z,64.90
2022-08-30T23:04:27.924Z,65.16
2022-08-30T23:06:54.727Z,65.05
2022-08-30T23:09:21.485Z,65.45
2022-08-30T23:11:48.185Z,65.19
2022-08-30T23:14:15.174Z,65.63
2022-08-30T23:16:42.110Z,65.69
2022-08-30T23:19:09.171Z,65.81
2022-08-30T23:21:35.968Z,65.86
2022-08-30T23:24:21.470Z,66.42
2022-08-30T23:27:07.178Z,66.51
2022-08-30T23:29:53.423Z,66.58
2022-08-30T23:32:39.719Z,66.74
2022-08-30T23:35:29.716Z,66.82
2022-08-30T23:38:16.975Z,66.63
2022-08-30T23:41:02.518Z,66.69
2022-08-30T23:43:48.133Z,66.82
2022-08-30T23:46:33.943Z,67.11
2022-08-30T23:49:21.040Z,67.21
2022-08-30T23:52:06.745Z,67.08
2022-08-30T23:54:52.334Z,67.41
2022-08-30T23:57:43.054Z,67.37
